Terminal Aerodrome Forecast
Issued by NWS

Home | Current Version | Previous Version | Text Only | Print | Product List | Glossary On
Versions: 1 2 3 4 5 6 7 8 9 10 11 12 13 14 15 16 17 18 19 20 21 22 23 24 25 26 27 28 29 30 31 32 33 34 35 36 37 38 39 40 41
000
FTPA31 PHFO 032300
TAFOGG
TAF
PHOG 032338Z 0400/0424 04019G25KT P6SM VCSH SCT015 BKN050
     FM040600 06012G18KT P6SM BKN060
     FM041000 05008KT P6SM BKN060
     FM042000 04016G24KT P6SM SCT060
      AMD LTD TO VIS AND WIND 0409/0416=

USA.gov is the U.S. government's official web portal to all federal, state and local government web resources and services.